Amelia City, Florida
Current Conditions -  °F | °C
As of 7:55 AM on Friday 24 Oct 2014 (Local Time) from KFHB Reporting Station
Clear Clear  
Wind Chill: 16°   Ceiling: Unl
Heat Index: 16°   Visibility: 10mi
Dew Point: 13°   Wind: 5mph
Humidity: 82%   Direction: 320°NW
Pressure: 30"   Gusts: NA
Location:  30.6056°N, 81.5268°W
Report Text: KFHB 241155Z AUTO 32004KT 10SM CLR 16/13 A3000 RMK AO1
Loading
Personal Weather Stations






























Interactive Weather Map New forecast layout! Learn more

10-Day Weather Forecast

Advertisements
Track Severe Weather on mobile